• Join FlightAware (Why Join?)
  • Login
  • US Flag 
09:00AM EST


 

Airport Tracker/Info


-or-


 

Live Flight TrackerFlight Track Log ✈ CCA1108 ✈ 16-Jun-2013 ✈ ZBOW / BAV - ZBAA / PEK

Flight Track Log - Related Links

Times and Time Zones

All times are in EDT time to prevent confusion due to time zone crossing. See the CCA1108 flight status page for this flight to view local times or setup timezone preferences in your user account.

Time Position Orientation Groundspeed Altitude Reporting Facility
EDT Latitude Longitude Course Direction KTS MPH feet Rate Location/Type
08:27PM 40.4870 111.4458 93° East  Level Estimated
08:28PM 40.4751 111.6525 94° East  Level Estimated
08:29PM 40.4629 111.8592 94° East  Level Estimated
08:30PM 40.4502 112.0657 95° East  Level Estimated
08:31PM 40.4372 112.2722 95° East  Level Estimated
08:32PM 40.4239 112.4786 95° East  Level Estimated
08:33PM 40.4101 112.6849 95° East  Level Estimated
08:34PM 40.3960 112.8912 95° East  Level Estimated
08:35PM 40.3816 113.0973 95° East  Level Estimated
08:36PM 40.3667 113.3034 95° East  Level Estimated
08:37PM 40.3515 113.5093 95° East  Level Estimated
08:38PM 40.3360 113.7152 96° East  Level Estimated
08:39PM 40.3200 113.9210 96° East  Level Estimated
08:40PM 40.3037 114.1267 96° East  Level Estimated
08:41PM 40.2871 114.3322 96° East  Level Estimated
08:42PM 40.2701 114.5377 96° East  Level Estimated
08:43PM 40.2527 114.7431 96° East  Level Estimated
08:44PM 40.2349 114.9483 96° East  Level Estimated
08:45PM 40.2168 115.1535 97° East  Level Estimated
08:46PM 40.1983 115.3585 97° East  Level Estimated
08:47PM 40.1795 115.5635 97° East  Level Estimated
08:48PM 40.1603 115.7683 97° East  Level Estimated
08:49PM 40.1408 115.9730 97° East  Level Estimated
08:50PM 40.1208 116.1776 97° East  Level Estimated
08:51PM 40.1006 116.3820 97° East  Level Estimated
08:52PM 40.0801 116.5846 97° East  Level Estimated
08:53PM 40.0801 116.5846 288° West  Level Estimated
08:54PM 40.0801 116.5846 288° West  Level Estimated
08:55PM 40.0801 116.5846 288° West  Level Estimated
08:56PM 40.0801 116.5846 288° West  Level Estimated
08:57PM 40.0801 116.5846 288° West  Level Estimated
08:58PM 40.0801 116.5846 288° West  Level Estimated
08:59PM 40.0801 116.5846 288° West  Level Estimated
09:00PM 40.0801 116.5846 288° West  Level Estimated
09:01PM 40.0801 116.5846 288° West  Level Estimated
09:02PM 40.0801 116.5846 288° West  Level Estimated
09:03PM 40.0801 116.5846 288° West  Level Estimated
09:04PM 40.0801 116.5846 288° West  Level Estimated
09:05PM 40.0801 116.5846 288° West  Level Estimated
09:06PM 40.0801 116.5846 288° West  Level Estimated
09:07PM 40.0801 116.5846 288° West  Level Estimated
09:08PM 40.0801 116.5846 288° West  Level Estimated